sensor_id;sensor_type;location;lat;lon;timestamp;pressure;altitude;pressure_sealevel;temperature;humidity
75172;BME280;63750;52.418;20.742;2024-01-10T00:00:53;102535.55;;;-4.41;52.58
75172;BME280;63750;52.418;20.742;2024-01-10T00:03:22;102528.66;;;-4.38;52.22
75172;BME280;63750;52.418;20.742;2024-01-10T00:05:50;102523.09;;;-4.41;52.36
75172;BME280;63750;52.418;20.742;2024-01-10T00:08:18;102524.13;;;-4.42;52.42
75172;BME280;63750;52.418;20.742;2024-01-10T00:10:47;102527.73;;;-4.46;52.42
75172;BME280;63750;52.418;20.742;2024-01-10T00:13:15;102528.88;;;-4.56;52.61
75172;BME280;63750;52.418;20.742;2024-01-10T00:15:43;102536.80;;;-4.58;52.67
75172;BME280;63750;52.418;20.742;2024-01-10T00:18:12;102532.81;;;-4.62;52.80
75172;BME280;63750;52.418;20.742;2024-01-10T00:20:40;102530.71;;;-4.66;52.73
75172;BME280;63750;52.418;20.742;2024-01-10T00:23:08;102532.65;;;-4.62;52.66
75172;BME280;63750;52.418;20.742;2024-01-10T00:25:37;102529.73;;;-4.57;52.84
75172;BME280;63750;52.418;20.742;2024-01-10T00:28:05;102523.86;;;-4.55;52.46
75172;BME280;63750;52.418;20.742;2024-01-10T00:30:34;102524.23;;;-4.52;52.66
75172;BME280;63750;52.418;20.742;2024-01-10T00:33:02;102518.00;;;-4.53;52.56
75172;BME280;63750;52.418;20.742;2024-01-10T00:35:32;102523.52;;;-4.55;52.53
75172;BME280;63750;52.418;20.742;2024-01-10T00:38:01;102530.11;;;-4.53;52.63
75172;BME280;63750;52.418;20.742;2024-01-10T00:40:29;102524.06;;;-4.52;52.73
75172;BME280;63750;52.418;20.742;2024-01-10T00:42:57;102523.89;;;-4.51;52.60
75172;BME280;63750;52.418;20.742;2024-01-10T00:45:25;102522.98;;;-4.59;52.66
75172;BME280;63750;52.418;20.742;2024-01-10T00:47:54;102522.63;;;-4.60;52.90
75172;BME280;63750;52.418;20.742;2024-01-10T00:50:22;102520.89;;;-4.58;53.27
75172;BME280;63750;52.418;20.742;2024-01-10T00:52:50;102519.00;;;-4.57;53.23
75172;BME280;63750;52.418;20.742;2024-01-10T00:55:19;102513.86;;;-4.52;53.36
75172;BME280;63750;52.418;20.742;2024-01-10T00:57:47;102514.05;;;-4.51;52.98
75172;BME280;63750;52.418;20.742;2024-01-10T01:00:17;102518.39;;;-4.48;52.93
75172;BME280;63750;52.418;20.742;2024-01-10T01:02:45;102516.48;;;-4.47;52.80
75172;BME280;63750;52.418;20.742;2024-01-10T01:05:13;102511.60;;;-4.53;52.83
75172;BME280;63750;52.418;20.742;2024-01-10T01:07:41;102505.67;;;-4.57;52.91
75172;BME280;63750;52.418;20.742;2024-01-10T01:10:10;102505.69;;;-4.55;52.70
75172;BME280;63750;52.418;20.742;2024-01-10T01:12:38;102499.96;;;-4.58;53.06
75172;BME280;63750;52.418;20.742;2024-01-10T01:15:08;102501.70;;;-4.60;52.92
75172;BME280;63750;52.418;20.742;2024-01-10T01:17:37;102501.52;;;-4.57;52.73
75172;BME280;63750;52.418;20.742;2024-01-10T01:20:07;102500.14;;;-4.59;52.79
75172;BME280;63750;52.418;20.742;2024-01-10T01:22:35;102497.56;;;-4.55;52.91
75172;BME280;63750;52.418;20.742;2024-01-10T01:25:04;102484.66;;;-4.48;52.83
75172;BME280;63750;52.418;20.742;2024-01-10T01:27:32;102485.52;;;-4.49;52.50
75172;BME280;63750;52.418;20.742;2024-01-10T01:30:01;102481.34;;;-4.52;52.34
75172;BME280;63750;52.418;20.742;2024-01-10T01:32:29;102479.95;;;-4.52;52.90
75172;BME280;63750;52.418;20.742;2024-01-10T01:34:58;102475.79;;;-4.54;52.78
75172;BME280;63750;52.418;20.742;2024-01-10T01:37:26;102471.09;;;-4.59;52.74
75172;BME280;63750;52.418;20.742;2024-01-10T01:39:54;102473.83;;;-4.63;52.85
75172;BME280;63750;52.418;20.742;2024-01-10T01:42:22;102470.83;;;-4.72;52.94
75172;BME280;63750;52.418;20.742;2024-01-10T01:44:51;102465.44;;;-4.76;53.29
75172;BME280;63750;52.418;20.742;2024-01-10T01:47:19;102470.97;;;-4.74;53.30
75172;BME280;63750;52.418;20.742;2024-01-10T01:49:48;102476.68;;;-4.76;53.52
75172;BME280;63750;52.418;20.742;2024-01-10T01:52:17;102477.70;;;-4.79;53.27
75172;BME280;63750;52.418;20.742;2024-01-10T01:54:45;102476.98;;;-4.83;53.49
75172;BME280;63750;52.418;20.742;2024-01-10T01:57:14;102471.63;;;-4.81;53.71
75172;BME280;63750;52.418;20.742;2024-01-10T01:59:42;102472.66;;;-4.81;53.48
75172;BME280;63750;52.418;20.742;2024-01-10T02:02:12;102471.30;;;-4.79;53.27
75172;BME280;63750;52.418;20.742;2024-01-10T02:04:41;102469.59;;;-4.77;53.26
75172;BME280;63750;52.418;20.742;2024-01-10T02:07:10;102472.34;;;-4.79;53.25
75172;BME280;63750;52.418;20.742;2024-01-10T02:09:38;102471.08;;;-4.84;53.28
75172;BME280;63750;52.418;20.742;2024-01-10T02:12:07;102471.61;;;-4.83;53.11
75172;BME280;63750;52.418;20.742;2024-01-10T02:14:37;102470.61;;;-4.79;53.22
75172;BME280;63750;52.418;20.742;2024-01-10T02:17:05;102474.77;;;-4.76;53.47
75172;BME280;63750;52.418;20.742;2024-01-10T02:19:34;102479.59;;;-4.81;53.56
75172;BME280;63750;52.418;20.742;2024-01-10T02:22:03;102477.17;;;-4.80;53.58
75172;BME280;63750;52.418;20.742;2024-01-10T02:24:31;102477.36;;;-4.78;53.41
75172;BME280;63750;52.418;20.742;2024-01-10T02:26:59;102474.78;;;-4.74;53.42
75172;BME280;63750;52.418;20.742;2024-01-10T02:29:28;102475.81;;;-4.76;53.09
75172;BME280;63750;52.418;20.742;2024-01-10T02:31:56;102470.77;;;-4.81;53.48
75172;BME280;63750;52.418;20.742;2024-01-10T02:34:24;102468.23;;;-4.95;53.51
75172;BME280;63750;52.418;20.742;2024-01-10T02:36:53;102469.59;;;-4.99;53.97
75172;BME280;63750;52.418;20.742;2024-01-10T02:39:21;102467.06;;;-4.91;53.81
75172;BME280;63750;52.418;20.742;2024-01-10T02:41:49;102462.91;;;-4.91;53.78
75172;BME280;63750;52.418;20.742;2024-01-10T02:44:17;102452.72;;;-4.90;53.72
75172;BME280;63750;52.418;20.742;2024-01-10T02:46:46;102453.24;;;-4.88;53.54
75172;BME280;63750;52.418;20.742;2024-01-10T02:49:14;102454.80;;;-4.90;53.63
75172;BME280;63750;52.418;20.742;2024-01-10T02:51:42;102450.79;;;-4.94;53.72
75172;BME280;63750;52.418;20.742;2024-01-10T02:54:11;102446.98;;;-4.93;53.72
75172;BME280;63750;52.418;20.742;2024-01-10T02:56:39;102443.35;;;-4.94;53.77
75172;BME280;63750;52.418;20.742;2024-01-10T02:59:07;102436.47;;;-4.90;53.84
75172;BME280;63750;52.418;20.742;2024-01-10T03:01:36;102433.73;;;-4.84;53.91
75172;BME280;63750;52.418;20.742;2024-01-10T03:04:04;102433.09;;;-4.78;53.78
75172;BME280;63750;52.418;20.742;2024-01-10T03:06:32;102427.54;;;-4.81;53.19
75172;BME280;63750;52.418;20.742;2024-01-10T03:09:01;102421.13;;;-4.83;53.60
75172;BME280;63750;52.418;20.742;2024-01-10T03:11:29;102416.13;;;-4.80;53.66
75172;BME280;63750;52.418;20.742;2024-01-10T03:14:04;102417.02;;;-4.79;53.36
75172;BME280;63750;52.418;20.742;2024-01-10T03:16:35;102416.27;;;-4.83;53.54
75172;BME280;63750;52.418;20.742;2024-01-10T03:19:03;102416.29;;;-4.83;53.62
75172;BME280;63750;52.418;20.742;2024-01-10T03:21:32;102422.20;;;-4.79;53.56
75172;BME280;63750;52.418;20.742;2024-01-10T03:24:01;102422.90;;;-4.74;53.49
75172;BME280;63750;52.418;20.742;2024-01-10T03:26:30;102419.45;;;-4.73;53.51
75172;BME280;63750;52.418;20.742;2024-01-10T03:28:58;102416.67;;;-4.76;53.15
75172;BME280;63750;52.418;20.742;2024-01-10T03:31:26;102420.83;;;-4.74;53.47
75172;BME280;63750;52.418;20.742;2024-01-10T03:33:55;102417.91;;;-4.73;53.32
75172;BME280;63750;52.418;20.742;2024-01-10T03:36:24;102416.14;;;-4.80;53.26
75172;BME280;63750;52.418;20.742;2024-01-10T03:38:52;102415.80;;;-4.78;53.45
75172;BME280;63750;52.418;20.742;2024-01-10T03:41:21;102417.90;;;-4.72;53.47
75172;BME280;63750;52.418;20.742;2024-01-10T03:43:52;102414.14;;;-4.67;53.52
75172;BME280;63750;52.418;20.742;2024-01-10T03:46:20;102414.01;;;-4.62;53.60
75172;BME280;63750;52.418;20.742;2024-01-10T03:48:48;102405.87;;;-4.63;53.19
75172;BME280;63750;52.418;20.742;2024-01-10T03:51:17;102407.74;;;-4.67;53.17
75172;BME280;63750;52.418;20.742;2024-01-10T03:53:46;102410.14;;;-4.70;53.68
75172;BME280;63750;52.418;20.742;2024-01-10T03:56:15;102403.90;;;-4.72;53.44
75172;BME280;63750;52.418;20.742;2024-01-10T03:58:43;102393.33;;;-4.77;53.87
75172;BME280;63750;52.418;20.742;2024-01-10T04:01:11;102392.13;;;-4.73;53.89
75172;BME280;63750;52.418;20.742;2024-01-10T04:03:39;102389.02;;;-4.73;53.83
75172;BME280;63750;52.418;20.742;2024-01-10T04:06:08;102389.02;;;-4.75;54.07
75172;BME280;63750;52.418;20.742;2024-01-10T04:08:36;102390.95;;;-4.69;54.11
75172;BME280;63750;52.418;20.742;2024-01-10T04:11:05;102390.46;;;-4.65;54.06
75172;BME280;63750;52.418;20.742;2024-01-10T04:13:33;102383.57;;;-4.61;53.84
75172;BME280;63750;52.418;20.742;2024-01-10T04:16:01;102376.66;;;-4.55;53.94
75172;BME280;63750;52.418;20.742;2024-01-10T04:18:30;102369.55;;;-4.59;53.63
75172;BME280;63750;52.418;20.742;2024-01-10T04:20:58;102369.38;;;-4.64;54.05
75172;BME280;63750;52.418;20.742;2024-01-10T04:23:26;102364.89;;;-4.61;53.82
75172;BME280;63750;52.418;20.742;2024-01-10T04:26:01;102364.20;;;-4.59;53.98
75172;BME280;63750;52.418;20.742;2024-01-10T04:28:30;102358.34;;;-4.54;53.68
75172;BME280;63750;52.418;20.742;2024-01-10T04:30:58;102357.46;;;-4.54;53.84
75172;BME280;63750;52.418;20.742;2024-01-10T04:33:28;102359.19;;;-4.57;53.94
75172;BME280;63750;52.418;20.742;2024-01-10T04:35:56;102361.09;;;-4.56;53.78
75172;BME280;63750;52.418;20.742;2024-01-10T04:38:24;102363.36;;;-4.52;54.01
75172;BME280;63750;52.418;20.742;2024-01-10T04:40:52;102370.14;;;-4.48;53.87
75172;BME280;63750;52.418;20.742;2024-01-10T04:43:21;102370.83;;;-4.44;53.85
75172;BME280;63750;52.418;20.742;2024-01-10T04:45:49;102374.12;;;-4.45;54.09
75172;BME280;63750;52.418;20.742;2024-01-10T04:48:17;102380.19;;;-4.44;54.40
75172;BME280;63750;52.418;20.742;2024-01-10T04:50:46;102383.82;;;-4.41;54.26
75172;BME280;63750;52.418;20.742;2024-01-10T04:53:14;102382.79;;;-4.39;54.44
75172;BME280;63750;52.418;20.742;2024-01-10T04:55:42;102388.53;;;-4.34;54.08
75172;BME280;63750;52.418;20.742;2024-01-10T04:58:10;102388.72;;;-4.32;54.39
75172;BME280;63750;52.418;20.742;2024-01-10T05:00:39;102393.55;;;-4.30;54.30
75172;BME280;63750;52.418;20.742;2024-01-10T05:03:07;102394.77;;;-4.30;54.27
75172;BME280;63750;52.418;20.742;2024-01-10T05:05:35;102390.97;;;-4.30;54.26
75172;BME280;63750;52.418;20.742;2024-01-10T05:08:05;102387.85;;;-4.32;54.16
75172;BME280;63750;52.418;20.742;2024-01-10T05:10:33;102388.17;;;-4.37;54.44
75172;BME280;63750;52.418;20.742;2024-01-10T05:13:02;102386.45;;;-4.36;54.61
75172;BME280;63750;52.418;20.742;2024-01-10T05:15:30;102391.14;;;-4.30;54.60
75172;BME280;63750;52.418;20.742;2024-01-10T05:17:58;102393.58;;;-4.24;54.68
75172;BME280;63750;52.418;20.742;2024-01-10T05:20:27;102395.16;;;-4.20;54.79
75172;BME280;63750;52.418;20.742;2024-01-10T05:22:55;102392.92;;;-4.18;54.83
75172;BME280;63750;52.418;20.742;2024-01-10T05:25:23;102398.46;;;-4.18;55.20
75172;BME280;63750;52.418;20.742;2024-01-10T05:27:52;102401.57;;;-4.13;55.39
75172;BME280;63750;52.418;20.742;2024-01-10T05:30:20;102402.64;;;-4.07;55.50
75172;BME280;63750;52.418;20.742;2024-01-10T05:32:48;102400.94;;;-3.99;55.31
75172;BME280;63750;52.418;20.742;2024-01-10T05:35:17;102394.23;;;-3.91;55.22
75172;BME280;63750;52.418;20.742;2024-01-10T05:37:45;102390.06;;;-3.87;55.89
75172;BME280;63750;52.418;20.742;2024-01-10T05:40:14;102389.02;;;-3.88;56.18
75172;BME280;63750;52.418;20.742;2024-01-10T05:42:42;102384.17;;;-3.87;56.56
75172;BME280;63750;52.418;20.742;2024-01-10T05:45:11;102386.42;;;-3.84;57.05
75172;BME280;63750;52.418;20.742;2024-01-10T05:47:39;102385.42;;;-3.74;57.19
75172;BME280;63750;52.418;20.742;2024-01-10T05:50:09;102382.64;;;-3.67;57.18
75172;BME280;63750;52.418;20.742;2024-01-10T05:53:22;102374.34;;;-3.54;56.23
75172;BME280;63750;52.418;20.742;2024-01-10T05:55:50;102369.15;;;-3.47;56.01
75172;BME280;63750;52.418;20.742;2024-01-10T05:58:19;102364.64;;;-3.49;56.63
75172;BME280;63750;52.418;20.742;2024-01-10T06:00:47;102362.23;;;-3.47;56.54
75172;BME280;63750;52.418;20.742;2024-01-10T06:03:15;102359.98;;;-3.46;56.49
75172;BME280;63750;52.418;20.742;2024-01-10T06:05:44;102358.94;;;-3.45;56.93
75172;BME280;63750;52.418;20.742;2024-01-10T06:08:12;102356.84;;;-3.39;56.61
75172;BME280;63750;52.418;20.742;2024-01-10T06:10:40;102352.52;;;-3.39;56.61
75172;BME280;63750;52.418;20.742;2024-01-10T06:13:09;102350.61;;;-3.44;56.51
75172;BME280;63750;52.418;20.742;2024-01-10T06:15:37;102352.35;;;-3.41;56.60
75172;BME280;63750;52.418;20.742;2024-01-10T06:18:06;102350.96;;;-3.45;56.44
75172;BME280;63750;52.418;20.742;2024-01-10T06:20:34;102356.66;;;-3.52;56.34
75172;BME280;63750;52.418;20.742;2024-01-10T06:23:02;102364.29;;;-3.54;56.43
75172;BME280;63750;52.418;20.742;2024-01-10T06:25:31;102372.27;;;-3.50;56.28
75172;BME280;63750;52.418;20.742;2024-01-10T06:27:59;102372.27;;;-3.51;56.20
75172;BME280;63750;52.418;20.742;2024-01-10T06:30:27;102373.83;;;-3.57;56.15
75172;BME280;63750;52.418;20.742;2024-01-10T06:32:56;102375.38;;;-3.52;56.78
75172;BME280;63750;52.418;20.742;2024-01-10T06:35:24;102375.58;;;-3.44;56.48
75172;BME280;63750;52.418;20.742;2024-01-10T06:37:52;102372.80;;;-3.47;56.47
75172;BME280;63750;52.418;20.742;2024-01-10T06:40:20;102377.65;;;-3.47;56.84
75172;BME280;63750;52.418;20.742;2024-01-10T06:42:49;102382.50;;;-3.46;56.84
75172;BME280;63750;52.418;20.742;2024-01-10T06:45:17;102382.50;;;-3.49;56.93
75172;BME280;63750;52.418;20.742;2024-01-10T06:47:45;102387.86;;;-3.49;57.04
75172;BME280;63750;52.418;20.742;2024-01-10T06:50:14;102391.34;;;-3.45;57.21
75172;BME280;63750;52.418;20.742;2024-01-10T06:52:42;102387.86;;;-3.39;57.17
75172;BME280;63750;52.418;20.742;2024-01-10T06:55:11;102384.75;;;-3.35;57.48
75172;BME280;63750;52.418;20.742;2024-01-10T06:57:39;102380.07;;;-3.34;57.59
75172;BME280;63750;52.418;20.742;2024-01-10T07:00:09;102380.94;;;-3.33;57.87
75172;BME280;63750;52.418;20.742;2024-01-10T07:02:38;102386.48;;;-3.32;57.90
75172;BME280;63750;52.418;20.742;2024-01-10T07:05:09;102387.19;;;-3.30;58.44
75172;BME280;63750;52.418;20.742;2024-01-10T07:07:37;102387.18;;;-3.27;58.61
75172;BME280;63750;52.418;20.742;2024-01-10T07:10:07;102383.89;;;-3.27;59.06
75172;BME280;63750;52.418;20.742;2024-01-10T07:12:35;102385.80;;;-3.26;58.88
75172;BME280;63750;52.418;20.742;2024-01-10T07:15:05;102386.47;;;-3.24;59.29
75172;BME280;63750;52.418;20.742;2024-01-10T07:17:33;102391.85;;;-3.21;59.40
75172;BME280;63750;52.418;20.742;2024-01-10T07:20:02;102385.44;;;-3.16;59.48
75172;BME280;63750;52.418;20.742;2024-01-10T07:22:30;102385.42;;;-3.09;59.64
75172;BME280;63750;52.418;20.742;2024-01-10T07:24:58;102375.89;;;-3.08;59.43
75172;BME280;63750;52.418;20.742;2024-01-10T07:27:27;102376.92;;;-3.09;60.11
75172;BME280;63750;52.418;20.742;2024-01-10T07:29:55;102369.31;;;-3.09;59.89
75172;BME280;63750;52.418;20.742;2024-01-10T07:32:23;102366.88;;;-3.13;59.69
75172;BME280;63750;52.418;20.742;2024-01-10T07:34:51;102364.64;;;-3.16;60.37
75172;BME280;63750;52.418;20.742;2024-01-10T07:37:20;102363.77;;;-3.16;60.14
75172;BME280;63750;52.418;20.742;2024-01-10T07:39:49;102367.75;;;-3.21;60.91
75172;BME280;63750;52.418;20.742;2024-01-10T07:42:17;102366.89;;;-3.21;60.58
75172;BME280;63750;52.418;20.742;2024-01-10T07:44:45;102366.89;;;-3.19;60.19
75172;BME280;63750;52.418;20.742;2024-01-10T07:47:13;102370.52;;;-3.18;59.65
75172;BME280;63750;52.418;20.742;2024-01-10T07:49:42;102369.84;;;-3.20;59.31
75172;BME280;63750;52.418;20.742;2024-01-10T07:52:10;102369.66;;;-3.16;59.51
75172;BME280;63750;52.418;20.742;2024-01-10T07:54:38;102376.95;;;-3.13;59.05
75172;BME280;63750;52.418;20.742;2024-01-10T07:57:07;102371.58;;;-3.14;58.86
75172;BME280;63750;52.418;20.742;2024-01-10T07:59:35;102370.19;;;-3.12;58.80
75172;BME280;63750;52.418;20.742;2024-01-10T08:02:03;102370.69;;;-3.08;59.21
75172;BME280;63750;52.418;20.742;2024-01-10T08:04:32;102368.78;;;-3.07;59.26
75172;BME280;63750;52.418;20.742;2024-01-10T08:07:00;102367.39;;;-3.06;59.14
75172;BME280;63750;52.418;20.742;2024-01-10T08:09:28;102364.27;;;-3.03;58.91
75172;BME280;63750;52.418;20.742;2024-01-10T08:11:57;102367.74;;;-3.02;58.78
75172;BME280;63750;52.418;20.742;2024-01-10T08:14:25;102365.66;;;-3.04;58.77
75172;BME280;63750;52.418;20.742;2024-01-10T08:16:53;102367.73;;;-3.04;58.85
75172;BME280;63750;52.418;20.742;2024-01-10T08:19:22;102364.10;;;-3.02;59.08
75172;BME280;63750;52.418;20.742;2024-01-10T08:21:50;102363.76;;;-3.00;59.22
75172;BME280;63750;52.418;20.742;2024-01-10T08:24:18;102362.55;;;-3.00;58.96
75172;BME280;63750;52.418;20.742;2024-01-10T08:26:47;102371.55;;;-3.03;58.94
75172;BME280;63750;52.418;20.742;2024-01-10T08:29:15;102370.69;;;-3.03;59.14
75172;BME280;63750;52.418;20.742;2024-01-10T08:31:44;102372.95;;;-2.99;59.42
75172;BME280;63750;52.418;20.742;2024-01-10T08:34:12;102380.72;;;-2.94;59.55
75172;BME280;63750;52.418;20.742;2024-01-10T08:36:40;102378.46;;;-2.91;59.38
75172;BME280;63750;52.418;20.742;2024-01-10T08:39:09;102375.69;;;-2.90;59.52
75172;BME280;63750;52.418;20.742;2024-01-10T08:41:37;102373.61;;;-2.85;59.94
75172;BME280;63750;52.418;20.742;2024-01-10T08:44:05;102373.42;;;-2.82;59.54
75172;BME280;63750;52.418;20.742;2024-01-10T08:46:34;102374.96;;;-2.75;59.72
75172;BME280;63750;52.418;20.742;2024-01-10T08:49:02;102380.68;;;-2.73;59.74
75172;BME280;63750;52.418;20.742;2024-01-10T08:51:30;102384.34;;;-2.70;59.81
75172;BME280;63750;52.418;20.742;2024-01-10T08:53:59;102390.89;;;-2.66;59.67
75172;BME280;63750;52.418;20.742;2024-01-10T08:56:27;102395.58;;;-2.64;59.88
75172;BME280;63750;52.418;20.742;2024-01-10T08:58:56;102399.56;;;-2.58;60.10
75172;BME280;63750;52.418;20.742;2024-01-10T09:01:24;102398.86;;;-2.53;59.97
75172;BME280;63750;52.418;20.742;2024-01-10T09:03:52;102399.00;;;-2.43;59.68
75172;BME280;63750;52.418;20.742;2024-01-10T09:06:21;102393.61;;;-2.43;59.45
75172;BME280;63750;52.418;20.742;2024-01-10T09:08:49;102385.98;;;-2.43;59.64
75172;BME280;63750;52.418;20.742;2024-01-10T09:11:17;102384.45;;;-2.54;59.59
75172;BME280;63750;52.418;20.742;2024-01-10T09:13:46;102382.73;;;-2.58;60.10
75172;BME280;63750;52.418;20.742;2024-01-10T09:16:14;102386.02;;;-2.53;60.28
75172;BME280;63750;52.418;20.742;2024-01-10T09:18:42;102384.59;;;-2.48;60.42
75172;BME280;63750;52.418;20.742;2024-01-10T09:21:11;102381.29;;;-2.43;60.46
75172;BME280;63750;52.418;20.742;2024-01-10T09:23:39;102385.23;;;-2.35;60.29
75172;BME280;63750;52.418;20.742;2024-01-10T09:26:08;102385.23;;;-2.31;60.23
75172;BME280;63750;52.418;20.742;2024-01-10T09:28:36;102387.65;;;-2.28;59.76
75172;BME280;63750;52.418;20.742;2024-01-10T09:31:05;102383.31;;;-2.28;59.51
75172;BME280;63750;52.418;20.742;2024-01-10T09:33:33;102385.23;;;-2.30;59.49
75172;BME280;63750;52.418;20.742;2024-01-10T09:36:02;102389.39;;;-2.30;59.67
75172;BME280;63750;52.418;20.742;2024-01-10T09:38:30;102387.85;;;-2.36;59.84
75172;BME280;63750;52.418;20.742;2024-01-10T09:41:04;102388.05;;;-2.42;60.00
75172;BME280;63750;52.418;20.742;2024-01-10T09:43:33;102384.06;;;-2.40;60.40
75172;BME280;63750;52.418;20.742;2024-01-10T09:46:02;102383.15;;;-2.35;60.48
75172;BME280;63750;52.418;20.742;2024-01-10T09:48:30;102387.66;;;-2.31;60.60
75172;BME280;63750;52.418;20.742;2024-01-10T09:51:02;102388.16;;;-2.23;60.64
75172;BME280;63750;52.418;20.742;2024-01-10T09:53:34;102387.42;;;-2.16;60.72
75172;BME280;63750;52.418;20.742;2024-01-10T09:56:05;102375.73;;;-2.06;60.38
75172;BME280;63750;52.418;20.742;2024-01-10T09:58:33;102373.34;;;-2.11;60.45
75172;BME280;63750;52.418;20.742;2024-01-10T10:01:02;102370.87;;;-2.06;60.40
75172;BME280;63750;52.418;20.742;2024-01-10T10:03:30;102365.98;;;-2.04;60.59
75172;BME280;63750;52.418;20.742;2024-01-10T10:06:00;102366.02;;;-2.06;60.52
75172;BME280;63750;52.418;20.742;2024-01-10T10:08:28;102370.84;;;-2.03;60.82
75172;BME280;63750;52.418;20.742;2024-01-10T10:10:56;102371.70;;;-1.95;60.49
75172;BME280;63750;52.418;20.742;2024-01-10T10:13:29;102372.40;;;-1.99;60.53
75172;BME280;63750;52.418;20.742;2024-01-10T10:16:02;102368.42;;;-2.05;60.59
75172;BME280;63750;52.418;20.742;2024-01-10T10:18:31;102367.97;;;-2.16;60.90
75172;BME280;63750;52.418;20.742;2024-01-10T10:21:10;102372.84;;;-2.19;61.32
75172;BME280;63750;52.418;20.742;2024-01-10T10:23:40;102374.38;;;-2.10;61.26
75172;BME280;63750;52.418;20.742;2024-01-10T10:26:16;102378.14;;;-2.01;61.49
75172;BME280;63750;52.418;20.742;2024-01-10T10:28:44;102369.77;;;-1.95;60.90
75172;BME280;63750;52.418;20.742;2024-01-10T10:31:13;102367.38;;;-2.00;60.55
75172;BME280;63750;52.418;20.742;2024-01-10T10:33:41;102362.38;;;-2.09;60.91
75172;BME280;63750;52.418;20.742;2024-01-10T10:36:10;102354.77;;;-2.10;61.06
75172;BME280;63750;52.418;20.742;2024-01-10T10:38:38;102356.13;;;-2.09;61.10
75172;BME280;63750;52.418;20.742;2024-01-10T10:41:08;102351.98;;;-2.10;61.37
75172;BME280;63750;52.418;20.742;2024-01-10T10:43:38;102349.20;;;-2.11;61.49
75172;BME280;63750;52.418;20.742;2024-01-10T10:46:07;102352.68;;;-2.13;61.24
75172;BME280;63750;52.418;20.742;2024-01-10T10:48:37;102346.31;;;-2.23;61.36
75172;BME280;63750;52.418;20.742;2024-01-10T10:51:08;102338.64;;;-2.21;61.14
75172;BME280;63750;52.418;20.742;2024-01-10T10:53:37;102339.49;;;-2.17;61.36
75172;BME280;63750;52.418;20.742;2024-01-10T10:56:08;102343.13;;;-2.12;61.28
75172;BME280;63750;52.418;20.742;2024-01-10T10:58:37;102341.34;;;-2.05;61.47
75172;BME280;63750;52.418;20.742;2024-01-10T11:01:07;102342.86;;;-1.96;60.91
75172;BME280;63750;52.418;20.742;2024-01-10T11:03:38;102343.52;;;-1.93;61.25
75172;BME280;63750;52.418;20.742;2024-01-10T11:06:07;102337.23;;;-1.85;60.89
75172;BME280;63750;52.418;20.742;2024-01-10T11:08:38;102336.61;;;-1.99;60.68
75172;BME280;63750;52.418;20.742;2024-01-10T11:11:17;102330.73;;;-2.04;61.01
75172;BME280;63750;52.418;20.742;2024-01-10T11:14:00;102327.77;;;-1.98;61.22
75172;BME280;63750;52.418;20.742;2024-01-10T11:23:22;102317.67;;;-1.52;59.58
75172;BME280;63750;52.418;20.742;2024-01-10T11:25:58;102314.51;;;-1.46;59.59
75172;BME280;63750;52.418;20.742;2024-01-10T11:28:30;102313.27;;;-1.64;59.97
75172;BME280;63750;52.418;20.742;2024-01-10T11:30:59;102305.69;;;-1.75;60.22
75172;BME280;63750;52.418;20.742;2024-01-10T11:33:33;102296.33;;;-1.76;60.60
75172;BME280;63750;52.418;20.742;2024-01-10T11:36:15;102297.05;;;-1.80;60.73
75172;BME280;63750;52.418;20.742;2024-01-10T11:38:47;102294.64;;;-1.82;60.84
75172;BME280;63750;52.418;20.742;2024-01-10T11:41:22;102290.00;;;-1.91;61.08
75172;BME280;63750;52.418;20.742;2024-01-10T11:46:52;102293.52;;;-1.73;61.20
75172;BME280;63750;52.418;20.742;2024-01-10T11:49:22;102296.13;;;-1.74;61.11
75172;BME280;63750;52.418;20.742;2024-01-10T11:51:52;102293.86;;;-1.72;61.40
75172;BME280;63750;52.418;20.742;2024-01-10T11:54:44;102288.34;;;-1.78;61.14
75172;BME280;63750;52.418;20.742;2024-01-10T11:57:20;102289.28;;;-1.88;61.19
75172;BME280;63750;52.418;20.742;2024-01-10T11:59:52;102292.60;;;-1.89;61.69
75172;BME280;63750;52.418;20.742;2024-01-10T12:02:21;102295.02;;;-1.87;61.30
75172;BME280;63750;52.418;20.742;2024-01-10T12:04:50;102296.64;;;-1.97;62.03
75172;BME280;63750;52.418;20.742;2024-01-10T12:07:20;102294.84;;;-2.09;62.48
75172;BME280;63750;52.418;20.742;2024-01-10T12:09:48;102298.27;;;-2.05;62.08
75172;BME280;63750;52.418;20.742;2024-01-10T12:12:17;102290.95;;;-2.00;62.64
75172;BME280;63750;52.418;20.742;2024-01-10T12:14:46;102293.17;;;-1.95;62.79
75172;BME280;63750;52.418;20.742;2024-01-10T12:17:14;102298.16;;;-1.89;63.01
75172;BME280;63750;52.418;20.742;2024-01-10T12:19:43;102300.52;;;-1.80;63.04
75172;BME280;63750;52.418;20.742;2024-01-10T12:22:11;102293.31;;;-1.68;62.79
75172;BME280;63750;52.418;20.742;2024-01-10T12:24:43;102289.06;;;-1.61;62.44
75172;BME280;63750;52.418;20.742;2024-01-10T12:27:12;102284.77;;;-1.65;62.08
75172;BME280;63750;52.418;20.742;2024-01-10T12:29:40;102283.89;;;-1.64;61.71
75172;BME280;63750;52.418;20.742;2024-01-10T12:32:10;102286.80;;;-1.60;61.91
75172;BME280;63750;52.418;20.742;2024-01-10T12:34:40;102276.73;;;-1.62;62.08
75172;BME280;63750;52.418;20.742;2024-01-10T12:37:08;102274.20;;;-1.67;61.94
75172;BME280;63750;52.418;20.742;2024-01-10T12:39:39;102270.08;;;-1.76;62.72
75172;BME280;63750;52.418;20.742;2024-01-10T12:42:08;102268.48;;;-1.72;62.61
75172;BME280;63750;52.418;20.742;2024-01-10T12:44:36;102265.33;;;-1.67;62.90
75172;BME280;63750;52.418;20.742;2024-01-10T12:47:04;102266.20;;;-1.68;62.90
75172;BME280;63750;52.418;20.742;2024-01-10T12:49:33;102257.54;;;-1.72;62.62
75172;BME280;63750;52.418;20.742;2024-01-10T12:52:01;102262.62;;;-1.76;62.77
75172;BME280;63750;52.418;20.742;2024-01-10T12:54:29;102262.50;;;-1.82;62.85
75172;BME280;63750;52.418;20.742;2024-01-10T12:56:58;102261.66;;;-1.88;63.09
75172;BME280;63750;52.418;20.742;2024-01-10T12:59:26;102262.58;;;-1.93;63.11